Time;durP1;ratioP1;P1;durP2;ratioP2;P2;SDS_P1;SDS_P2;PMS_P1;PMS_P2;Temp;Humidity;BMP_temperature;BMP_pressure;BME280_temperature;BME280_humidity;BME280_pressure;Samples;Min_cycle;Max_cycle;Signal;HPM_P1;HPM_P2
2020/12/11 00:02:22;;;;;;;38.93;11.80;;;;;;;2.41;100.00;99775.25;5029320;28;20036;-68
2020/12/11 00:04:47;;;;;;;30.73;11.27;;;;;;;2.44;100.00;99777.03;5016917;28;20042;-67
2020/12/11 00:07:13;;;;;;;38.47;11.73;;;;;;;2.42;100.00;99765.78;5022313;28;20104;-65
2020/12/11 00:09:38;;;;;;;35.90;10.30;;;;;;;2.43;100.00;99767.56;5050236;28;20029;-65
2020/12/11 00:12:04;;;;;;;33.03;10.53;;;;;;;2.45;100.00;99771.03;5013474;28;20454;-68
2020/12/11 00:14:29;;;;;;;35.77;10.67;;;;;;;2.45;100.00;99771.03;5017670;28;20025;-68
2020/12/11 00:16:55;;;;;;;39.70;12.17;;;;;;;2.45;100.00;99768.44;5023603;28;20056;-67
2020/12/11 00:19:21;;;;;;;31.00;10.23;;;;;;;2.39;100.00;99765.75;5012586;28;20029;-67
2020/12/11 00:21:48;;;;;;;30.80;10.77;;;;;;;2.39;100.00;99758.00;5017428;28;20025;-66
2020/12/11 00:24:14;;;;;;;29.17;11.40;;;;;;;2.35;100.00;99755.38;5015561;28;20052;-67
2020/12/11 00:26:39;;;;;;;31.13;10.27;;;;;;;2.39;100.00;99748.56;5008882;28;20289;-67
2020/12/11 00:29:05;;;;;;;29.77;9.03;;;;;;;2.41;100.00;99744.28;5018162;28;20030;-69
2020/12/11 00:31:31;;;;;;;26.80;9.60;;;;;;;2.42;100.00;99745.16;5009955;28;20117;-66
2020/12/11 00:33:56;;;;;;;27.07;9.43;;;;;;;2.40;100.00;99746.84;5020853;28;20084;-67
2020/12/11 00:36:22;;;;;;;31.80;10.03;;;;;;;2.40;100.00;99736.53;5016396;28;20033;-69
2020/12/11 00:38:48;;;;;;;30.77;10.60;;;;;;;2.37;100.00;99731.31;5005582;28;20696;-67
2020/12/11 00:41:14;;;;;;;31.63;10.83;;;;;;;2.34;100.00;99727.84;5021643;28;20289;-67
2020/12/11 00:43:40;;;;;;;31.73;10.50;;;;;;;2.31;100.00;99717.47;5005500;28;20029;-68
2020/12/11 00:46:08;;;;;;;28.83;10.57;;;;;;;2.29;100.00;99736.31;5007092;28;20330;-67
2020/12/11 00:48:34;;;;;;;29.93;9.10;;;;;;;2.23;100.00;99719.03;5004235;28;20026;-66
2020/12/11 00:50:59;;;;;;;29.83;9.23;;;;;;;2.19;100.00;99716.38;5001107;28;20821;-68
2020/12/11 00:53:25;;;;;;;30.90;10.10;;;;;;;2.12;100.00;99709.34;5009217;28;20039;-68
2020/12/11 00:55:50;;;;;;;31.50;9.17;;;;;;;2.02;100.00;99708.28;5011346;28;20030;-66
2020/12/11 00:58:16;;;;;;;26.53;9.30;;;;;;;1.97;100.00;99704.78;5015019;28;20101;-66
2020/12/11 01:00:41;;;;;;;28.07;9.87;;;;;;;1.88;100.00;99705.44;5009823;28;20116;-68
2020/12/11 01:03:07;;;;;;;30.27;10.17;;;;;;;1.70;100.00;99695.66;5016797;28;20040;-67
2020/12/11 01:05:35;;;;;;;26.63;9.73;;;;;;;1.54;100.00;99697.84;5009038;28;20038;-68
2020/12/11 01:08:01;;;;;;;30.07;10.07;;;;;;;1.38;100.00;99691.53;5023053;28;20116;-69
2020/12/11 01:10:26;;;;;;;31.27;9.77;;;;;;;1.25;100.00;99689.50;5020853;28;20362;-69
2020/12/11 01:12:51;;;;;;;31.50;10.07;;;;;;;1.16;100.00;99690.16;5019999;28;20037;-68
2020/12/11 01:15:17;;;;;;;31.23;11.03;;;;;;;1.06;100.00;99681.34;5013349;28;20068;-68
2020/12/11 01:17:42;;;;;;;28.97;10.13;;;;;;;0.96;100.00;99687.13;5022274;28;20022;-67
2020/12/11 01:20:08;;;;;;;33.27;10.93;;;;;;;0.86;100.00;99687.78;5008227;28;20504;-68
2020/12/11 01:22:33;;;;;;;33.73;10.13;;;;;;;0.71;100.00;99680.53;5018313;28;20025;-68
2020/12/11 01:24:59;;;;;;;36.03;9.60;;;;;;;0.68;100.00;99679.59;5019473;28;20026;-68
2020/12/11 01:27:24;;;;;;;33.13;10.10;;;;;;;0.64;100.00;99685.50;5016460;28;20173;-69
2020/12/11 01:29:50;;;;;;;30.43;9.73;;;;;;;0.49;100.00;99674.00;5013493;28;20029;-66
2020/12/11 01:32:15;;;;;;;32.63;10.73;;;;;;;0.40;100.00;99668.63;5010472;28;21600;-67
2020/12/11 01:34:41;;;;;;;41.37;12.50;;;;;;;0.39;100.00;99659.19;5019761;28;20496;-67
2020/12/11 01:37:06;;;;;;;32.77;10.27;;;;;;;0.37;100.00;99668.56;5020838;28;20036;-67
2020/12/11 01:39:32;;;;;;;38.60;11.07;;;;;;;0.40;100.00;99663.50;5014845;28;20030;-66
2020/12/11 01:41:59;;;;;;;33.67;10.33;;;;;;;0.43;100.00;99663.56;5021010;28;20504;-68
2020/12/11 01:44:25;;;;;;;38.60;11.60;;;;;;;0.40;100.00;99658.34;5012477;28;20342;-68
2020/12/11 01:46:50;;;;;;;35.20;10.23;;;;;;;0.41;100.00;99647.22;5007836;28;20299;-66
2020/12/11 01:49:17;;;;;;;35.03;10.53;;;;;;;0.38;100.00;99649.72;5017459;28;20280;-66
2020/12/11 01:51:44;;;;;;;33.33;10.60;;;;;;;0.37;100.00;99637.72;5009084;28;20088;-66
2020/12/11 01:54:10;;;;;;;37.80;10.47;;;;;;;0.43;100.00;99637.84;5021286;28;20291;-69
2020/12/11 01:56:40;;;;;;;36.77;10.70;;;;;;;0.48;100.00;99631.09;5018775;28;20286;-68
2020/12/11 01:59:12;;;;;;;47.07;10.97;;;;;;;0.46;100.00;99631.91;5019327;28;20273;-67
2020/12/11 02:01:37;;;;;;;36.43;10.97;;;;;;;0.46;100.00;99617.34;5024417;28;20771;-68
2020/12/11 02:04:05;;;;;;;36.03;10.33;;;;;;;0.51;100.00;99614.91;5019737;28;20287;-68
2020/12/11 02:06:31;;;;;;;30.93;9.77;;;;;;;0.59;100.00;99614.22;5015139;28;20077;-65
2020/12/11 02:08:57;;;;;;;25.80;8.87;;;;;;;0.72;100.00;99601.66;5019399;28;20727;-68
2020/12/11 02:11:24;;;;;;;31.57;10.30;;;;;;;0.86;100.00;99592.56;5022041;28;20033;-67
2020/12/11 02:13:50;;;;;;;30.93;9.90;;;;;;;0.92;100.00;99592.69;5016030;28;20276;-69
2020/12/11 02:16:21;;;;;;;26.50;9.20;;;;;;;0.93;100.00;99584.13;5017739;28;20288;-66
2020/12/11 02:18:46;;;;;;;31.37;8.50;;;;;;;0.98;100.00;99582.53;5016233;28;20299;-68
2020/12/11 02:21:12;;;;;;;29.73;9.57;;;;;;;0.96;100.00;99579.03;5030609;28;20751;-68
2020/12/11 02:23:37;;;;;;;32.97;9.93;;;;;;;0.92;100.00;99574.66;5019277;28;20108;-68
2020/12/11 02:26:03;;;;;;;34.03;9.50;;;;;;;0.93;100.00;99576.41;5013507;28;20036;-68
2020/12/11 02:28:33;;;;;;;33.70;9.67;;;;;;;0.88;100.00;99580.59;5014600;28;20096;-68
2020/12/11 02:30:59;;;;;;;31.10;9.23;;;;;;;0.87;100.00;99568.56;5018831;28;20033;-68
2020/12/11 02:33:25;;;;;;;32.03;11.23;;;;;;;0.82;100.00;99571.03;5021657;28;20776;-68
2020/12/11 02:35:50;;;;;;;29.07;10.07;;;;;;;0.81;100.00;99565.84;5019945;28;20280;-65
2020/12/11 02:38:15;;;;;;;35.63;10.17;;;;;;;0.81;100.00;99547.84;5023935;28;20453;-68
2020/12/11 02:40:52;;;;;;;33.57;9.63;;;;;;;0.77;100.00;99548.63;5011366;28;20028;-67
2020/12/11 02:43:18;;;;;;;32.80;10.07;;;;;;;0.79;100.00;99549.50;5019443;28;20160;-67
2020/12/11 02:45:46;;;;;;;33.03;8.90;;;;;;;0.87;100.00;99540.25;5011111;28;20283;-68
2020/12/11 02:48:12;;;;;;;33.40;9.90;;;;;;;0.88;100.00;99544.56;5020808;28;20779;-68
2020/12/11 02:50:38;;;;;;;27.97;8.93;;;;;;;0.99;100.00;99542.22;5021496;28;20300;-66
2020/12/11 02:53:04;;;;;;;30.07;9.57;;;;;;;0.94;100.00;99536.97;5012763;28;20287;-68
2020/12/11 02:55:29;;;;;;;38.07;9.57;;;;;;;0.93;100.00;99532.66;5024801;28;20786;-68
2020/12/11 02:57:55;;;;;;;32.17;9.43;;;;;;;0.99;100.00;99527.66;5026832;28;20036;-68
2020/12/11 03:00:20;;;;;;;35.17;9.80;;;;;;;1.07;100.00;99528.66;5024293;28;20037;-68
2020/12/11 03:02:46;;;;;;;32.10;10.40;;;;;;;1.06;100.00;99534.66;5020697;28;20034;-68
2020/12/11 03:05:11;;;;;;;39.43;10.47;;;;;;;1.05;100.00;99526.91;5015308;28;20074;-69
2020/12/11 03:07:36;;;;;;;37.20;11.20;;;;;;;1.10;100.00;99522.72;5021127;28;20615;-67
2020/12/11 03:10:03;;;;;;;40.60;10.70;;;;;;;1.16;100.00;99518.56;5024205;28;20040;-68
2020/12/11 03:12:28;;;;;;;30.70;10.07;;;;;;;1.12;100.00;99524.50;5021241;28;20037;-68
2020/12/11 03:14:53;;;;;;;36.53;10.93;;;;;;;1.08;100.00;99527.81;5019926;28;20299;-68
2020/12/11 03:17:19;;;;;;;40.20;9.93;;;;;;;1.10;100.00;99522.72;5022396;28;20037;-67
2020/12/11 03:19:44;;;;;;;28.53;10.33;;;;;;;1.11;100.00;99512.47;5018435;28;20040;-69
2020/12/11 03:22:10;;;;;;;36.67;10.57;;;;;;;1.11;100.00;99514.16;5028516;28;20029;-68
2020/12/11 03:24:35;;;;;;;38.50;10.70;;;;;;;1.10;100.00;99512.44;5013745;28;20044;-68
2020/12/11 03:27:00;;;;;;;34.17;10.27;;;;;;;1.03;100.00;99506.28;5015460;28;20036;-68
2020/12/11 03:29:26;;;;;;;37.33;10.67;;;;;;;1.02;100.00;99506.25;5029667;28;20073;-67
2020/12/11 03:31:51;;;;;;;28.97;9.37;;;;;;;1.03;100.00;99508.00;5024639;28;20171;-67
2020/12/11 03:34:17;;;;;;;32.20;10.53;;;;;;;0.94;100.00;99508.66;5008402;28;20104;-68
2020/12/11 03:36:42;;;;;;;42.93;10.77;;;;;;;0.88;100.00;99504.28;5019428;28;20081;-68
2020/12/11 03:39:07;;;;;;;34.23;10.00;;;;;;;0.82;100.00;99505.84;5016624;28;20072;-67
2020/12/11 03:41:33;;;;;;;34.83;9.80;;;;;;;0.72;100.00;99501.31;5019715;28;20436;-67
2020/12/11 03:43:58;;;;;;;36.47;10.07;;;;;;;0.66;100.00;99496.94;5014997;28;20397;-69
2020/12/11 03:46:24;;;;;;;30.17;9.37;;;;;;;0.59;100.00;99489.91;5020009;28;20544;-67
2020/12/11 03:48:50;;;;;;;30.03;9.00;;;;;;;0.65;100.00;99489.19;5013679;28;20034;-69
2020/12/11 03:51:21;;;;;;;27.47;8.73;;;;;;;0.56;100.00;99488.16;5013012;28;20049;-68
2020/12/11 03:53:47;;;;;;;37.37;10.10;;;;;;;0.53;100.00;99485.50;5021319;28;20298;-69
2020/12/11 03:56:17;;;;;;;33.97;9.37;;;;;;;0.49;100.00;99483.72;5020222;28;20374;-67
2020/12/11 03:58:43;;;;;;;32.67;10.87;;;;;;;0.45;100.00;99481.91;5019794;28;20021;-67
2020/12/11 04:01:13;;;;;;;35.00;10.47;;;;;;;0.43;100.00;99473.28;5012458;28;20296;-67
2020/12/11 04:03:39;;;;;;;29.97;8.70;;;;;;;0.49;100.00;99478.59;5018052;28;20284;-67
2020/12/11 04:06:14;;;;;;;31.07;9.63;;;;;;;0.50;100.00;99471.72;5024143;28;20624;-68
2020/12/11 04:08:40;;;;;;;31.13;9.80;;;;;;;0.52;100.00;99472.63;5018010;28;20288;-65
2020/12/11 04:11:06;;;;;;;35.00;9.67;;;;;;;0.46;100.00;99478.50;5017645;28;20370;-67
2020/12/11 04:13:32;;;;;;;26.83;9.13;;;;;;;0.50;100.00;99480.31;5011055;28;20572;-67
2020/12/11 04:15:58;;;;;;;25.63;8.40;;;;;;;0.46;100.00;99473.34;5017584;28;20312;-68
2020/12/11 04:18:23;;;;;;;29.70;9.53;;;;;;;0.54;100.00;99479.53;5018885;28;20025;-69
2020/12/11 04:20:49;;;;;;;32.30;9.10;;;;;;;0.64;100.00;99474.59;5022302;28;20454;-68
2020/12/11 04:23:14;;;;;;;25.60;8.73;;;;;;;0.69;100.00;99473.84;5011512;28;20400;-67
2020/12/11 04:25:40;;;;;;;31.20;9.13;;;;;;;0.69;100.00;99466.13;5017014;28;20033;-68
2020/12/11 04:28:05;;;;;;;28.50;9.23;;;;;;;0.79;100.00;99467.19;5012927;28;20041;-68
2020/12/11 04:30:30;;;;;;;29.87;9.23;;;;;;;0.74;100.00;99458.53;5015707;28;20033;-68
2020/12/11 04:32:56;;;;;;;28.50;9.60;;;;;;;0.75;100.00;99465.41;5018769;28;20029;-66
2020/12/11 04:35:21;;;;;;;30.53;9.33;;;;;;;0.74;100.00;99455.94;5012635;28;20083;-66
2020/12/11 04:37:47;;;;;;;27.03;9.20;;;;;;;0.73;100.00;99451.63;5015676;28;20021;-68
2020/12/11 04:40:15;;;;;;;24.80;9.23;;;;;;;0.87;100.00;99457.94;5013940;28;20033;-67
2020/12/11 04:42:44;;;;;;;27.70;8.73;;;;;;;0.87;100.00;99460.50;5015745;28;20779;-68
2020/12/11 04:45:09;;;;;;;26.77;8.97;;;;;;;0.90;100.00;99450.25;5032979;28;20315;-69
2020/12/11 04:47:35;;;;;;;26.60;9.00;;;;;;;0.92;100.00;99458.00;5026235;28;20375;-69
2020/12/11 04:50:01;;;;;;;28.70;10.43;;;;;;;0.84;100.00;99460.41;5011251;28;20029;-70
2020/12/11 04:52:35;;;;;;;31.47;9.13;;;;;;;0.82;100.00;99456.94;5023600;28;20041;-68
2020/12/11 04:55:02;;;;;;;34.33;9.63;;;;;;;0.80;100.00;99461.19;5010634;28;20288;-69
2020/12/11 04:57:32;;;;;;;32.97;10.30;;;;;;;0.76;100.00;99456.84;5020848;28;20763;-69
2020/12/11 04:59:57;;;;;;;29.53;10.03;;;;;;;0.78;100.00;99460.31;5020991;28;20338;-69
2020/12/11 05:02:26;;;;;;;25.27;8.83;;;;;;;0.82;100.00;99465.53;5017473;28;20755;-69
2020/12/11 05:04:53;;;;;;;28.47;8.50;;;;;;;0.86;100.00;99453.63;5021759;28;20060;-69
2020/12/11 05:07:19;;;;;;;34.27;9.63;;;;;;;0.84;100.00;99448.41;5014053;28;20285;-69
2020/12/11 05:09:54;;;;;;;27.43;9.63;;;;;;;0.87;100.00;99457.94;5015802;28;20342;-67
2020/12/11 05:12:20;;;;;;;26.93;8.87;;;;;;;0.85;100.00;99457.91;5017298;28;20068;-69
2020/12/11 05:14:45;;;;;;;30.97;8.93;;;;;;;0.92;100.00;99448.59;5013641;28;20316;-69
2020/12/11 05:17:10;;;;;;;31.20;10.20;;;;;;;0.89;100.00;99438.25;5021810;28;20037;-71
2020/12/11 05:19:57;;;;;;;25.30;8.30;;;;;;;0.88;100.00;99437.38;5016691;28;20476;-69
2020/12/11 05:22:25;;;;;;;29.27;9.07;;;;;;;0.92;100.00;99440.88;5019869;28;20103;-66
2020/12/11 05:24:52;;;;;;;24.90;9.00;;;;;;;0.86;100.00;99435.63;5032998;28;20366;-67
2020/12/11 05:27:31;;;;;;;27.43;9.07;;;;;;;0.83;100.00;99427.81;5032037;28;20294;-70
2020/12/11 05:29:58;;;;;;;26.77;9.03;;;;;;;0.84;100.00;99424.41;5032230;28;20283;-70
2020/12/11 05:32:45;;;;;;;29.50;8.80;;;;;;;0.95;100.00;99428.03;5015823;28;20285;-69
2020/12/11 05:35:17;;;;;;;24.70;8.17;;;;;;;1.00;100.00;99436.75;5011962;28;20295;-69
2020/12/11 05:38:04;;;;;;;29.00;8.20;;;;;;;0.93;100.00;99428.88;5021489;28;20428;-68
2020/12/11 05:40:43;;;;;;;22.73;7.43;;;;;;;0.87;100.00;99417.63;5059989;28;20337;-70
2020/12/11 05:43:17;;;;;;;28.43;8.53;;;;;;;0.86;100.00;99417.59;5050098;28;20946;-70
2020/12/11 05:45:53;;;;;;;38.47;9.23;;;;;;;0.92;100.00;99407.41;5016323;28;20707;-70
2020/12/11 05:48:20;;;;;;;32.10;11.20;;;;;;;0.92;100.00;99406.53;5021313;28;20291;-68
2020/12/11 05:50:45;;;;;;;30.33;9.17;;;;;;;0.95;100.00;99407.47;5011550;28;20644;-69
2020/12/11 05:53:11;;;;;;;27.27;8.47;;;;;;;0.99;100.00;99398.13;5027055;28;20383;-70
2020/12/11 05:55:36;;;;;;;27.03;9.40;;;;;;;0.91;100.00;99387.66;5016652;28;20022;-69
2020/12/11 05:58:02;;;;;;;29.17;10.73;;;;;;;0.90;100.00;99367.94;5021169;28;20048;-69
2020/12/11 06:00:28;;;;;;;24.80;8.13;;;;;;;0.92;100.00;99366.25;5021874;28;20030;-69
2020/12/11 06:02:55;;;;;;;27.23;8.17;;;;;;;0.94;100.00;99361.97;5023818;28;20297;-69
2020/12/11 06:05:23;;;;;;;25.77;8.47;;;;;;;0.92;100.00;99365.38;5012915;28;20068;-69
2020/12/11 06:07:50;;;;;;;27.70;9.10;;;;;;;0.84;100.00;99354.94;5013669;28;20293;-68
2020/12/11 06:10:19;;;;;;;29.03;9.37;;;;;;;0.80;100.00;99351.44;5019303;28;20287;-68
2020/12/11 06:12:45;;;;;;;27.87;8.80;;;;;;;0.87;100.00;99352.44;5022370;28;20779;-69
2020/12/11 06:15:35;;;;;;;28.93;9.70;;;;;;;0.80;100.00;99342.84;5019561;28;20369;-69
2020/12/11 06:18:15;;;;;;;25.33;9.10;;;;;;;0.82;100.00;99339.47;5026973;28;20029;-68
2020/12/11 06:20:41;;;;;;;22.90;7.93;;;;;;;0.77;100.00;99330.81;5023189;28;20339;-68
2020/12/11 06:23:19;;;;;;;18.73;7.47;;;;;;;0.76;100.00;99328.22;5025621;28;20322;-68
2020/12/11 06:25:55;;;;;;;21.57;6.67;;;;;;;0.72;100.00;99316.13;4992475;28;20281;-70
2020/12/11 06:28:37;;;;;;;29.70;9.17;;;;;;;0.81;100.00;99308.56;4999401;28;20293;-67
2020/12/11 06:31:03;;;;;;;27.58;7.20;;;;;;;0.89;100.00;99304.44;5028411;28;20280;-69
2020/12/11 06:33:30;;;;;;;24.17;7.83;;;;;;;0.86;100.00;99304.41;5024587;28;20112;-68
2020/12/11 06:36:01;;;;;;;20.03;6.70;;;;;;;0.91;100.00;99302.75;5028027;28;20490;-70
2020/12/11 06:38:56;;;;;;;32.47;9.53;;;;;;;0.88;100.00;99302.72;5024302;28;20307;-68
2020/12/11 06:41:28;;;;;;;20.10;7.37;;;;;;;0.90;100.00;99285.59;5019785;28;20292;-69
2020/12/11 06:43:55;;;;;;;28.27;8.70;;;;;;;0.87;100.00;99291.56;5012625;28;20809;-67
2020/12/11 06:46:27;;;;;;;24.23;7.93;;;;;;;0.85;100.00;99298.38;5024994;28;20316;-70
2020/12/11 06:49:22;;;;;;;;;;;;;;;0.90;100.00;99290.72;5025175;28;20777;-69
2020/12/11 06:51:47;;;;;;;28.47;9.00;;;;;;;0.82;100.00;99297.44;5004172;28;19913;-69
2020/12/11 06:54:33;;;;;;;31.57;10.00;;;;;;;0.76;100.00;99297.34;5021770;28;20290;-70
2020/12/11 06:57:00;;;;;;;29.63;8.40;;;;;;;0.83;100.00;99309.47;5025323;28;20026;-69
2020/12/11 06:59:31;;;;;;;27.23;9.60;;;;;;;0.74;100.00;99304.19;5010080;28;20774;-67
2020/12/11 07:02:17;;;;;;;34.57;9.60;;;;;;;0.69;100.00;99305.78;5015275;28;20277;-68
2020/12/11 07:04:45;;;;;;;33.77;10.17;;;;;;;0.67;100.00;99310.91;5008419;28;20261;-68
2020/12/11 07:07:11;;;;;;;30.90;10.20;;;;;;;0.68;100.00;99311.78;5021647;28;20289;-67
2020/12/11 07:09:48;;;;;;;28.67;9.63;;;;;;;0.66;100.00;99303.16;5018467;28;20642;-67
2020/12/11 07:12:17;;;;;;;26.83;9.00;;;;;;;0.66;100.00;99301.47;5024251;28;20334;-69
2020/12/11 07:14:46;;;;;;;31.37;8.97;;;;;;;0.73;100.00;99281.88;5011666;28;20329;-68
2020/12/11 07:17:24;;;;;;;32.50;9.77;;;;;;;0.76;100.00;99281.91;5001010;28;697706;-69
2020/12/11 07:19:50;;;;;;;23.97;7.67;;;;;;;0.84;100.00;99281.19;5011187;28;20789;-67
2020/12/11 07:22:18;;;;;;;31.30;8.83;;;;;;;0.88;100.00;99287.28;5019205;28;20284;-69
2020/12/11 07:24:44;;;;;;;31.47;10.33;;;;;;;0.86;100.00;99283.81;5017817;28;20029;-68
2020/12/11 07:27:10;;;;;;;24.57;8.23;;;;;;;0.79;100.00;99287.09;5011662;28;20372;-68
2020/12/11 07:29:35;;;;;;;30.33;9.50;;;;;;;0.82;100.00;99287.16;5010269;28;20600;-67
2020/12/11 07:32:01;;;;;;;28.03;9.57;;;;;;;0.82;100.00;99282.88;5050774;28;20546;-68
2020/12/11 07:34:29;;;;;;;28.47;8.40;;;;;;;0.92;100.00;99283.03;5017750;28;20077;-68
2020/12/11 07:36:56;;;;;;;16.87;5.47;;;;;;;0.95;100.00;99272.78;5016984;28;20025;-68
2020/12/11 07:39:27;;;;;;;24.33;9.07;;;;;;;0.91;100.00;99266.72;5022254;28;20276;-68
2020/12/11 07:41:53;;;;;;;27.57;8.93;;;;;;;0.87;100.00;99270.97;5021332;28;20655;-67
2020/12/11 07:44:24;;;;;;;25.77;9.57;;;;;;;0.86;100.00;99258.09;5025353;28;20280;-69
2020/12/11 07:46:50;;;;;;;28.13;9.60;;;;;;;0.87;100.00;99263.25;5026107;28;20284;-68
2020/12/11 07:49:16;;;;;;;25.60;8.67;;;;;;;0.84;100.00;99259.75;5014332;28;20775;-68
2020/12/11 07:51:48;;;;;;;25.23;8.60;;;;;;;0.80;100.00;99255.41;5011677;28;20265;-67
2020/12/11 07:54:14;;;;;;;24.48;8.77;;;;;;;0.87;100.00;99254.66;5018444;28;20052;-68
2020/12/11 07:56:40;;;;;;;16.90;6.80;;;;;;;0.94;100.00;99235.91;5019726;28;20030;-68
2020/12/11 07:59:15;;;;;;;26.30;7.87;;;;;;;0.90;100.00;99231.56;5011670;28;20613;-68
2020/12/11 08:01:47;;;;;;;29.00;9.33;;;;;;;0.93;100.00;99233.31;5014519;28;20307;-67
2020/12/11 08:04:13;;;;;;;22.27;8.37;;;;;;;0.91;100.00;99223.00;5027905;28;20694;-68
2020/12/11 08:06:39;;;;;;;26.57;8.60;;;;;;;0.97;100.00;99229.94;5009499;28;20283;-68
2020/12/11 08:09:13;;;;;;;23.37;8.10;;;;;;;0.95;100.00;99245.34;5011694;28;20347;-67
2020/12/11 08:11:43;;;;;;;24.77;8.70;;;;;;;1.01;100.00;99237.75;5011354;28;20100;-67
2020/12/11 08:14:09;;;;;;;25.13;8.03;;;;;;;1.06;100.00;99225.81;5010850;28;20304;-67
2020/12/11 08:16:35;;;;;;;25.97;9.47;;;;;;;1.10;100.00;99227.59;5043313;28;20727;-68
2020/12/11 08:19:01;;;;;;;26.47;8.90;;;;;;;1.08;100.00;99221.53;5009316;28;20099;-67
2020/12/11 08:21:31;;;;;;;24.07;8.13;;;;;;;1.14;100.00;99213.91;5028559;28;20025;-68
2020/12/11 08:23:57;;;;;;;22.67;7.13;;;;;;;1.14;100.00;99213.91;5011899;28;20609;-68
2020/12/11 08:26:24;;;;;;;24.93;9.33;;;;;;;1.25;100.00;99213.22;5010505;28;20338;-67
2020/12/11 08:29:02;;;;;;;20.90;7.10;;;;;;;1.23;100.00;99213.19;5028274;28;20276;-68
2020/12/11 08:31:27;;;;;;;22.27;8.00;;;;;;;1.28;100.00;99218.41;5029508;28;20635;-68
2020/12/11 08:34:02;;;;;;;22.53;7.57;;;;;;;1.32;100.00;99217.59;5028944;28;20284;-67
2020/12/11 08:36:29;;;;;;;25.60;8.87;;;;;;;1.25;100.00;99216.66;5028549;28;20076;-67
2020/12/11 08:39:03;;;;;;;25.97;8.13;;;;;;;1.30;100.00;99219.28;5029941;28;20279;-67
2020/12/11 08:41:30;;;;;;;25.97;9.23;;;;;;;1.29;100.00;99212.41;5030451;28;20299;-68
2020/12/11 08:43:56;;;;;;;26.10;9.50;;;;;;;1.36;100.00;99220.25;5014699;28;20295;-68
2020/12/11 08:51:39;;;;;;;22.80;8.13;;;;;;;1.49;100.00;99205.84;5011969;28;20326;-69
2020/12/11 08:54:06;;;;;;;24.93;8.57;;;;;;;1.47;100.00;99202.38;5020893;28;20277;-68
2020/12/11 08:56:32;;;;;;;22.07;8.20;;;;;;;1.45;100.00;99188.59;5027161;28;20025;-68
2020/12/11 08:58:57;;;;;;;23.10;8.03;;;;;;;1.49;100.00;99195.53;5028151;28;20272;-69
2020/12/11 09:01:23;;;;;;;25.27;9.00;;;;;;;1.48;100.00;99201.53;5010345;28;20022;-67
2020/12/11 09:03:48;;;;;;;23.23;8.43;;;;;;;1.47;100.00;99186.94;5026015;28;20045;-68
2020/12/11 09:06:13;;;;;;;19.80;7.73;;;;;;;1.60;100.00;99187.94;5010692;28;20030;-67
2020/12/11 09:08:39;;;;;;;19.20;7.20;;;;;;;1.61;100.00;99180.25;5010873;28;20026;-68
2020/12/11 09:11:04;;;;;;;22.27;7.43;;;;;;;1.67;100.00;99185.44;5010732;28;20038;-68
2020/12/11 09:13:30;;;;;;;22.17;9.00;;;;;;;1.70;100.00;99175.22;5010637;28;20033;-67
2020/12/11 09:15:55;;;;;;;24.70;9.50;;;;;;;1.70;100.00;99177.78;5013894;28;20029;-67
2020/12/11 09:18:20;;;;;;;23.37;8.47;;;;;;;1.68;100.00;99176.88;5021283;28;20021;-67
2020/12/11 09:20:46;;;;;;;22.67;8.80;;;;;;;1.69;100.00;99173.44;5017749;28;20021;-69
2020/12/11 09:23:12;;;;;;;25.17;8.30;;;;;;;1.81;100.00;99177.03;5010547;28;20064;-67
2020/12/11 09:25:37;;;;;;;21.10;7.47;;;;;;;1.80;100.00;99176.16;5023896;28;20033;-67
2020/12/11 09:28:09;;;;;;;19.97;7.73;;;;;;;1.85;100.00;99173.66;5010801;28;20022;-68
2020/12/11 09:30:37;;;;;;;21.17;7.50;;;;;;;1.85;100.00;99178.81;4994085;28;20053;-69
2020/12/11 09:33:13;;;;;;;24.90;9.47;;;;;;;1.88;100.00;99165.94;5010240;28;20038;-68
2020/12/11 09:35:38;;;;;;;22.70;7.77;;;;;;;2.04;98.54;99155.81;5009164;28;20280;-70
2020/12/11 09:38:04;;;;;;;21.07;7.90;;;;;;;2.03;99.41;99163.53;5010219;28;20271;-67
2020/12/11 09:55:39;;;;;;;21.43;7.20;;;;;;;2.38;98.18;99157.88;5020263;28;20021;-69
2020/12/11 09:58:04;;;;;;;19.77;7.93;;;;;;;2.46;97.95;99153.66;5020409;28;20033;-68
2020/12/11 10:00:30;;;;;;;20.00;7.20;;;;;;;2.47;97.85;99150.22;5011029;28;20331;-66
2020/12/11 10:05:21;;;;;;;18.90;7.40;;;;;;;2.57;97.04;99144.28;5029030;28;20551;-67
2020/12/11 10:07:46;;;;;;;23.43;8.17;;;;;;;2.59;96.06;99145.16;5027183;28;20021;-67
2020/12/11 10:10:12;;;;;;;17.20;7.00;;;;;;;2.66;96.09;99136.59;5009758;28;20484;-67
2020/12/11 10:12:37;;;;;;;22.73;8.67;;;;;;;2.73;96.44;99138.38;5013969;28;20037;-66
2020/12/11 10:15:08;;;;;;;16.13;6.03;;;;;;;2.78;95.45;99134.09;5012728;28;20026;-67
2020/12/11 10:17:34;;;;;;;21.70;7.77;;;;;;;2.82;95.69;99133.28;5013620;28;20033;-67
2020/12/11 10:19:59;;;;;;;21.00;9.17;;;;;;;2.85;96.33;99125.56;5027557;28;20333;-67
2020/12/11 10:22:25;;;;;;;21.17;7.07;;;;;;;2.90;95.40;99110.97;5013445;28;20069;-68
2020/12/11 10:24:50;;;;;;;15.13;6.07;;;;;;;3.05;95.27;99114.53;5012867;28;20153;-67
2020/12/11 10:27:16;;;;;;;19.67;8.33;;;;;;;3.06;94.57;99117.09;5046332;28;20203;-67
2020/12/11 10:29:41;;;;;;;16.03;6.70;;;;;;;3.15;93.89;99116.25;5015980;28;20483;-67
2020/12/11 10:32:06;;;;;;;14.50;5.40;;;;;;;3.30;92.68;99115.50;5016331;28;20038;-67
2020/12/11 10:34:35;;;;;;;19.00;7.03;;;;;;;3.28;92.91;99102.59;5012544;28;20029;-67
2020/12/11 10:37:11;;;;;;;17.83;6.37;;;;;;;3.36;92.86;99113.81;5012962;28;20034;-67
2020/12/11 10:39:38;;;;;;;15.73;6.77;;;;;;;3.33;92.00;99106.03;5007660;28;20338;-67
2020/12/11 10:42:04;;;;;;;20.30;7.27;;;;;;;3.30;93.39;99090.53;5011491;28;20323;-67
2020/12/11 10:44:29;;;;;;;16.57;7.33;;;;;;;3.41;92.00;99096.63;5018501;28;20674;-68
2020/12/11 10:46:55;;;;;;;19.07;7.23;;;;;;;3.47;92.45;99088.00;5020000;28;20029;-70
2020/12/11 10:49:21;;;;;;;18.10;7.30;;;;;;;3.46;91.69;99084.56;5014398;28;20040;-68
2020/12/11 10:51:48;;;;;;;18.60;7.83;;;;;;;3.47;91.59;99078.53;5017500;28;20079;-69
2020/12/11 10:54:14;;;;;;;15.60;6.60;;;;;;;3.56;91.90;99082.03;5019728;28;20303;-67
2020/12/11 10:56:41;;;;;;;16.97;7.53;;;;;;;3.57;91.25;99070.81;5012289;28;20310;-67
2020/12/11 10:59:07;;;;;;;19.17;7.57;;;;;;;3.59;91.21;99069.09;5011980;28;20281;-67
2020/12/11 11:01:32;;;;;;;19.27;7.80;;;;;;;3.67;91.54;99075.16;5014125;28;20281;-67
2020/12/11 11:03:58;;;;;;;20.47;8.83;;;;;;;3.66;91.15;99058.81;5020239;28;20338;-67
2020/12/11 11:06:28;;;;;;;17.93;6.90;;;;;;;3.79;91.14;99055.38;5011132;28;20378;-68
2020/12/11 11:09:09;;;;;;;21.23;8.87;;;;;;;3.82;90.56;99050.22;5012588;28;20033;-67
2020/12/11 11:11:39;;;;;;;17.00;7.13;;;;;;;3.86;90.00;99064.00;5024409;28;20280;-67
2020/12/11 11:22:26;;;;;;;22.20;8.43;;;;;;;4.01;89.67;99039.91;5012014;28;20276;-67
2020/12/11 11:29:55;;;;;;;13.87;6.20;;;;;;;4.17;88.75;99025.25;5030941;28;20307;-68
2020/12/11 11:32:21;;;;;;;22.57;8.80;;;;;;;4.11;88.94;99026.94;5030128;28;20112;-68
2020/12/11 11:34:46;;;;;;;21.63;7.60;;;;;;;4.14;89.16;99020.09;5029255;28;20033;-67
2020/12/11 11:37:13;;;;;;;20.20;7.40;;;;;;;4.16;89.37;99028.69;5014249;28;20092;-68
2020/12/11 11:39:38;;;;;;;9.97;4.17;;;;;;;4.28;88.06;99020.94;5011557;28;20433;-69
2020/12/11 11:42:04;;;;;;;17.50;7.63;;;;;;;4.23;89.41;99013.16;5011387;28;20351;-67
2020/12/11 11:44:46;;;;;;;16.77;7.07;;;;;;;4.26;88.31;99015.75;5044034;28;20024;-67
2020/12/11 11:47:12;;;;;;;16.88;6.55;;;;;;;4.24;87.70;99014.00;5024828;28;20029;-68
2020/12/11 11:49:56;;;;;;;21.13;7.73;;;;;;;4.26;88.64;98995.06;5011662;28;20030;-69
2020/12/11 11:54:50;;;;;;;20.83;7.37;;;;;;;4.26;88.12;98994.22;5021305;28;20280;-67
2020/12/11 11:57:15;;;;;;;20.47;8.13;;;;;;;4.22;88.67;98992.47;5011198;28;20272;-68
2020/12/11 11:59:42;;;;;;;15.13;5.93;;;;;;;4.21;88.46;98991.59;5011351;28;20036;-67
2020/12/11 12:02:07;;;;;;;18.93;7.70;;;;;;;4.18;89.19;98993.34;5011264;28;20037;-66
2020/12/11 12:04:32;;;;;;;23.03;7.30;;;;;;;4.27;87.16;98995.94;5011639;28;20273;-67
2020/12/11 12:06:58;;;;;;;18.83;7.07;;;;;;;4.29;88.19;98991.63;5010878;28;20030;-68